Kinmundy, Illinois
Current Conditions -  °F | °C
As of 11:35 PM on Wednesday 17 Dec 2014 (Local Time) from KSLO Reporting Station
Clear Clear  
Wind Chill: 30°   Ceiling: Unl
Heat Index: 30°   Visibility: 10mi
Dew Point: 26°   Wind: 3mph
Humidity: 84%   Direction: 30°NNE
Pressure: 30.31"   Gusts: NA
Location:  38.77°N, 88.85°W
Report Text: KSLO 180535Z AUTO 03003KT 10SM CLR M01/M04 A3031 RMK AO2 T10121036
Loading
Personal Weather Stations






























Interactive Weather Map New forecast layout! Learn more

10-Day Weather Forecast

Advertisements
Track Severe Weather on mobile